Kezdőlap
METAR-TAF:

METAR-TAF

Repülőterek :

Aktau, Kazahsztán

földrajzi szélesség: 43-52-12N, földrajzi hosszúság: 051-06E, magasság: 22 m

Jelenlegi meteorológiai megfigyelések

A jelentés 12 perccel ezelõtt készült, 07:30 UTC
Déli szél 12 kt
Hőmérséklet 28°C
Páratartalom 37%
Légköri nyomás 1010 hPa
Látótávolság 10 km, vagy több
felhőtlen 1500 m magasságban, és nincs gomolyfelhõ

METAR: UATE 260730Z 19006MPS CAVOK 28/12 Q1010 R12/0///70 NOSIG RMK QFE755/1007

Idő: 12:42 (07:42 UTC)

Előrejelzés

A jelentés 2 órával és 38 perccel ezelõtt készült, 05:04 UTC
Az előrejelzés 26-én 06 óra UTC és 27-én 06 óra UTC között érvényes
Dél-délkeleti szél 17 kt széllökések: 29 kt
Látótávolság 10 km, vagy több
Szórványos felhőzet 3300 lábon, Cumulonimbus.
26-én 12 óra UTC és 26-én 14 óra UTC között fokozatosan kialakuló
Délnyugati szél 12 kt

TAF: UATE 260504Z 2606/2706 16009G15MPS 9999 SCT033CB TX30/2608Z TN14/2702Z BECMG 2612/2614 22006MPS

Meteorológiai megfigyelések és előrejelzések több, mint 4000 repülőtéren (METAR és TAF jelentéseket).

A térképen piros és sárga pontok jelzik az elérhető meteorológiai állomásokat.

Mozgassa az egeret a pont fölött, hogy megjelenjen az állomás neve.

Azután kattintson az időjárási megfigyelések és előrejelzések megtekintéséhez.

A térkép megváltoztatása: kattintson a fekete keresztel jelölt zöld gombra ráközelítéshez, a vonallal jelölt zöld gombra távolításhoz, vagy a zöld nyilakra a szomszédos térképek eléréséhez.


METAR-TAF: